createdAt,value
2022-12-25T00:01:28.503Z,5.70
2022-12-25T00:04:15.757Z,5.60
2022-12-25T00:07:03.156Z,5.60
2022-12-25T00:09:50.330Z,5.60
2022-12-25T00:12:37.815Z,5.60
2022-12-25T00:15:25.212Z,5.70
2022-12-25T00:18:13.750Z,5.70
2022-12-25T00:21:02.343Z,5.70
2022-12-25T00:23:50.210Z,5.70
2022-12-25T00:26:37.480Z,5.70
2022-12-25T00:29:24.633Z,5.70
2022-12-25T00:32:11.948Z,5.70
2022-12-25T00:35:01.697Z,5.60
2022-12-25T00:37:48.911Z,5.60
2022-12-25T00:40:42.136Z,5.60
2022-12-25T00:43:28.861Z,5.50
2022-12-25T00:46:16.095Z,5.50
2022-12-25T00:49:03.682Z,5.50
2022-12-25T00:51:52.343Z,5.50
2022-12-25T00:54:39.730Z,5.50
2022-12-25T00:57:26.680Z,5.60
2022-12-25T01:00:14.775Z,5.60
2022-12-25T01:03:02.054Z,5.60
2022-12-25T01:05:57.484Z,5.70
2022-12-25T01:09:49.122Z,5.70
2022-12-25T01:12:39.701Z,5.70
2022-12-25T01:15:27.480Z,5.70
2022-12-25T01:18:14.758Z,5.70
2022-12-25T01:21:07.616Z,5.60
2022-12-25T01:23:55.235Z,5.50
2022-12-25T01:26:42.372Z,5.50
2022-12-25T01:29:31.063Z,5.50
2022-12-25T01:32:18.525Z,5.60
2022-12-25T01:35:06.092Z,5.60
2022-12-25T01:37:53.739Z,5.60
2022-12-25T01:40:41.026Z,5.60
2022-12-25T01:43:30.481Z,5.60
2022-12-25T01:46:19.080Z,5.60
2022-12-25T01:49:09.522Z,5.50
2022-12-25T01:52:00.681Z,5.50
2022-12-25T01:54:52.646Z,5.60
2022-12-25T01:57:42.048Z,5.60
2022-12-25T02:00:29.022Z,5.60
2022-12-25T02:03:18.231Z,5.70
2022-12-25T02:06:06.467Z,5.60
2022-12-25T02:08:53.503Z,5.70
2022-12-25T02:11:58.851Z,5.70
2022-12-25T02:14:49.831Z,5.80
2022-12-25T02:17:43.220Z,5.80
2022-12-25T02:20:43.630Z,5.80
2022-12-25T02:23:58.980Z,5.90
2022-12-25T02:27:01.708Z,5.90
2022-12-25T02:29:57.349Z,5.90
2022-12-25T02:32:48.637Z,5.90
2022-12-25T02:35:34.963Z,5.80
2022-12-25T02:38:27.550Z,5.80
2022-12-25T02:41:16.931Z,5.80
2022-12-25T02:44:28.508Z,5.80
2022-12-25T02:47:50.930Z,5.80
2022-12-25T02:50:56.028Z,5.80
2022-12-25T02:54:02.070Z,5.80
2022-12-25T02:57:09.457Z,5.80
2022-12-25T03:00:16.875Z,5.80
2022-12-25T03:03:26.414Z,5.80
2022-12-25T03:06:32.089Z,5.80
2022-12-25T03:09:42.284Z,5.80
2022-12-25T03:12:42.287Z,5.80
2022-12-25T03:15:46.971Z,5.80
2022-12-25T03:18:36.413Z,5.80
2022-12-25T03:21:40.655Z,5.80
2022-12-25T03:24:45.088Z,5.70
2022-12-25T03:27:34.696Z,5.80
2022-12-25T03:30:41.158Z,5.80
2022-12-25T03:33:45.116Z,5.80
2022-12-25T03:36:43.792Z,5.80
2022-12-25T03:39:59.757Z,5.80
2022-12-25T03:43:11.647Z,5.70
2022-12-25T03:46:22.079Z,5.80
2022-12-25T03:49:36.449Z,5.70
2022-12-25T03:52:44.996Z,5.70
2022-12-25T03:55:55.277Z,5.70
2022-12-25T03:59:10.399Z,5.70
2022-12-25T04:02:14.951Z,5.70
2022-12-25T04:05:19.541Z,5.70
2022-12-25T04:08:25.645Z,5.70
2022-12-25T04:11:29.990Z,5.70
2022-12-25T04:14:34.129Z,5.70
2022-12-25T04:17:50.209Z,5.70
2022-12-25T04:20:54.943Z,5.70
2022-12-25T04:24:01.021Z,5.70
2022-12-25T04:27:05.620Z,5.80
2022-12-25T04:30:09.955Z,5.80
2022-12-25T04:33:16.453Z,5.80
2022-12-25T04:36:11.931Z,5.80
2022-12-25T04:39:00.328Z,5.80
2022-12-25T04:41:47.509Z,5.70
2022-12-25T04:44:35.433Z,5.80
2022-12-25T04:47:22.392Z,5.80
2022-12-25T04:50:10.105Z,5.70
2022-12-25T04:52:57.451Z,5.70
2022-12-25T04:55:46.495Z,5.70
2022-12-25T04:58:33.841Z,5.70
2022-12-25T05:01:21.111Z,5.70
2022-12-25T05:04:08.250Z,5.80
2022-12-25T05:06:55.174Z,5.80
2022-12-25T05:09:42.266Z,5.80
2022-12-25T05:12:32.313Z,5.80
2022-12-25T05:15:19.745Z,5.80
2022-12-25T05:18:06.734Z,5.80
2022-12-25T05:20:55.179Z,5.80
2022-12-25T05:23:48.730Z,5.80
2022-12-25T05:26:36.153Z,5.80
2022-12-25T05:29:24.543Z,5.80
2022-12-25T05:32:11.763Z,5.80
2022-12-25T05:35:00.133Z,5.80
2022-12-25T05:37:47.333Z,5.80
2022-12-25T05:40:34.619Z,5.70
2022-12-25T05:43:21.602Z,5.70
2022-12-25T05:46:11.558Z,5.80
2022-12-25T05:48:58.929Z,5.80
2022-12-25T05:51:46.148Z,5.70
2022-12-25T05:54:33.510Z,5.70
2022-12-25T05:57:20.439Z,5.70
2022-12-25T06:00:08.990Z,5.70
2022-12-25T06:02:58.084Z,5.70
2022-12-25T06:05:45.359Z,5.70
2022-12-25T06:08:32.313Z,5.70
2022-12-25T06:11:19.352Z,5.60
2022-12-25T06:14:06.585Z,5.60
2022-12-25T06:16:54.374Z,5.50
2022-12-25T06:19:44.121Z,5.50
2022-12-25T06:22:31.153Z,5.40
2022-12-25T06:25:18.396Z,5.30
2022-12-25T06:28:05.760Z,5.30
2022-12-25T06:30:53.000Z,5.20
2022-12-25T06:33:40.289Z,5.20
2022-12-25T06:36:30.459Z,5.10
2022-12-25T06:39:17.883Z,4.90
2022-12-25T06:42:05.114Z,4.90
2022-12-25T06:44:53.369Z,4.90
2022-12-25T06:47:40.818Z,4.90
2022-12-25T06:50:28.192Z,4.90
2022-12-25T06:53:16.817Z,4.90
2022-12-25T06:56:08.900Z,4.90
2022-12-25T06:58:57.670Z,4.90
2022-12-25T07:01:47.632Z,4.90
2022-12-25T07:04:38.856Z,4.90
2022-12-25T07:07:26.135Z,4.90
2022-12-25T07:10:14.805Z,4.90
2022-12-25T07:13:01.947Z,5.00
2022-12-25T07:15:49.262Z,4.90
2022-12-25T07:18:36.917Z,4.90
2022-12-25T07:21:24.195Z,4.70
2022-12-25T07:24:11.922Z,4.80
2022-12-25T07:27:00.362Z,4.80
2022-12-25T07:29:47.727Z,4.90
2022-12-25T07:32:34.618Z,5.00
2022-12-25T07:35:21.936Z,5.00
2022-12-25T07:38:09.154Z,4.90
2022-12-25T07:40:56.513Z,4.90
2022-12-25T07:43:44.742Z,5.00
2022-12-25T07:46:31.920Z,5.00
2022-12-25T07:49:19.344Z,5.10
2022-12-25T07:52:06.561Z,5.20
2022-12-25T07:54:53.676Z,5.30
2022-12-25T07:57:41.352Z,5.30
2022-12-25T08:00:32.808Z,5.30
2022-12-25T08:03:20.212Z,5.40
2022-12-25T08:06:09.386Z,5.30
2022-12-25T08:08:56.609Z,5.20
2022-12-25T08:11:47.744Z,5.30
2022-12-25T08:14:34.927Z,5.30
2022-12-25T08:17:23.372Z,5.30
2022-12-25T08:20:11.061Z,5.30
2022-12-25T08:22:58.523Z,5.20
2022-12-25T08:25:45.804Z,5.30
2022-12-25T08:28:32.521Z,5.50
2022-12-25T08:31:21.385Z,5.70
2022-12-25T08:34:10.799Z,5.70
2022-12-25T08:36:57.945Z,5.80
2022-12-25T08:39:45.193Z,6.00
2022-12-25T08:42:32.257Z,6.10
2022-12-25T08:45:19.191Z,6.00
2022-12-25T08:48:07.582Z,5.70
2022-12-25T08:50:55.913Z,5.70
2022-12-25T08:53:43.221Z,6.20
2022-12-25T08:56:33.129Z,6.40
2022-12-25T08:59:20.558Z,6.70
2022-12-25T09:02:07.772Z,6.90
2022-12-25T09:04:55.387Z,6.80
2022-12-25T09:07:44.093Z,6.50
2022-12-25T09:10:31.175Z,6.60
2022-12-25T09:13:18.620Z,7.00
2022-12-25T09:16:07.555Z,7.40
2022-12-25T09:18:57.302Z,8.20
2022-12-25T09:21:44.739Z,9.40
2022-12-25T09:24:34.289Z,9.90
2022-12-25T09:27:21.905Z,9.90
2022-12-25T09:30:09.996Z,9.70
2022-12-25T09:32:57.441Z,9.30
2022-12-25T09:35:44.894Z,9.20
2022-12-25T09:38:32.809Z,9.00
2022-12-25T09:41:30.043Z,8.30
2022-12-25T09:44:22.066Z,7.80
2022-12-25T09:47:14.771Z,7.50
2022-12-25T09:50:08.082Z,7.50
2022-12-25T09:53:01.991Z,7.50
2022-12-25T09:55:58.575Z,7.90
2022-12-25T09:58:47.403Z,8.20
2022-12-25T10:01:42.157Z,9.10
2022-12-25T10:04:45.777Z,9.90
2022-12-25T10:07:38.560Z,11.30
2022-12-25T10:10:41.533Z,11.40
2022-12-25T10:13:50.076Z,11.20
2022-12-25T10:16:47.397Z,10.40
2022-12-25T10:19:45.231Z,10.00
2022-12-25T10:22:37.174Z,10.00
2022-12-25T10:25:26.145Z,10.30
2022-12-25T10:28:15.786Z,10.20
2022-12-25T10:31:17.537Z,10.00
2022-12-25T10:34:07.250Z,10.30
2022-12-25T10:36:54.379Z,10.90
2022-12-25T10:39:46.280Z,10.90
2022-12-25T10:42:40.117Z,10.70
2022-12-25T10:45:27.292Z,11.20
2022-12-25T10:48:24.021Z,11.20
2022-12-25T10:51:12.916Z,11.40
2022-12-25T10:54:00.710Z,11.10
2022-12-25T10:56:55.049Z,11.20
2022-12-25T10:59:45.167Z,11.10
2022-12-25T11:02:37.681Z,10.90
2022-12-25T11:05:29.439Z,10.90
2022-12-25T11:08:22.152Z,11.10
2022-12-25T11:11:19.132Z,11.60
2022-12-25T11:14:06.102Z,11.80
2022-12-25T11:16:52.893Z,11.10
2022-12-25T11:19:39.674Z,11.30
2022-12-25T11:22:28.955Z,11.30
2022-12-25T11:25:24.540Z,11.20
2022-12-25T11:28:13.540Z,11.30
2022-12-25T11:31:04.005Z,12.10
2022-12-25T11:33:56.692Z,12.70
2022-12-25T11:36:46.545Z,13.00
2022-12-25T11:39:37.437Z,13.40
2022-12-25T11:42:29.611Z,13.70
2022-12-25T11:45:20.188Z,14.20
2022-12-25T11:48:12.973Z,14.90
2022-12-25T11:51:03.704Z,14.10
2022-12-25T11:53:54.243Z,14.60
2022-12-25T11:56:41.584Z,14.60
2022-12-25T11:59:36.263Z,15.30
2022-12-25T12:02:32.279Z,15.30
2022-12-25T12:05:24.514Z,15.40
2022-12-25T12:08:13.993Z,14.50
2022-12-25T12:11:17.456Z,14.80
2022-12-25T12:14:21.716Z,15.00
2022-12-25T12:17:12.952Z,14.90
2022-12-25T12:19:59.972Z,14.70
2022-12-25T12:22:51.611Z,13.50
2022-12-25T12:25:41.236Z,12.90
2022-12-25T12:28:30.793Z,13.10
2022-12-25T12:31:18.725Z,12.80
2022-12-25T12:34:08.929Z,12.80
2022-12-25T12:37:03.096Z,12.80
2022-12-25T12:39:53.523Z,12.70
2022-12-25T12:42:50.567Z,12.80
2022-12-25T12:45:39.696Z,12.70
2022-12-25T12:48:30.275Z,12.50
2022-12-25T12:51:33.041Z,12.20
2022-12-25T12:54:22.228Z,12.10
2022-12-25T12:57:25.347Z,12.00
2022-12-25T13:00:18.998Z,11.80
2022-12-25T13:03:29.400Z,11.80
2022-12-25T13:06:23.309Z,12.00
2022-12-25T13:09:22.632Z,12.00
2022-12-25T13:12:12.122Z,12.20
2022-12-25T13:15:00.225Z,12.30
2022-12-25T13:17:50.220Z,12.20
2022-12-25T13:20:45.995Z,11.70
2022-12-25T13:23:37.580Z,11.60
2022-12-25T13:26:25.150Z,11.20
2022-12-25T13:29:23.620Z,10.90
2022-12-25T13:32:21.698Z,10.80
2022-12-25T13:35:14.052Z,11.00
2022-12-25T13:38:02.010Z,11.10
2022-12-25T13:41:14.292Z,11.20
2022-12-25T13:44:01.740Z,11.10
2022-12-25T13:46:49.693Z,11.00
2022-12-25T13:49:38.407Z,10.90
2022-12-25T13:52:33.459Z,10.90
2022-12-25T13:55:22.451Z,10.90
2022-12-25T13:58:19.768Z,10.80
2022-12-25T14:01:07.946Z,10.90
2022-12-25T14:03:55.872Z,10.90
2022-12-25T14:06:43.363Z,10.90
2022-12-25T14:09:30.970Z,10.80
2022-12-25T14:12:19.548Z,10.70
2022-12-25T14:15:13.874Z,10.60
2022-12-25T14:18:01.267Z,10.60
2022-12-25T14:20:59.421Z,10.60
2022-12-25T14:23:48.774Z,10.40
2022-12-25T14:26:35.965Z,10.10
2022-12-25T14:29:28.224Z,10.10
2022-12-25T14:32:19.904Z,10.00
2022-12-25T14:35:08.050Z,9.90
2022-12-25T14:38:00.130Z,9.90
2022-12-25T14:40:47.497Z,9.80
2022-12-25T14:43:34.704Z,9.80
2022-12-25T14:46:25.917Z,9.70
2022-12-25T14:49:25.501Z,9.40
2022-12-25T14:52:19.053Z,9.40
2022-12-25T14:55:08.958Z,9.30
2022-12-25T14:57:58.737Z,9.20
2022-12-25T15:00:46.726Z,9.10
2022-12-25T15:03:37.892Z,9.00
2022-12-25T15:06:33.630Z,9.00
2022-12-25T15:09:21.137Z,9.00
2022-12-25T15:12:08.212Z,8.90
2022-12-25T15:14:55.128Z,8.80
2022-12-25T15:17:42.805Z,8.70
2022-12-25T15:20:33.305Z,8.70
2022-12-25T15:23:22.624Z,8.60
2022-12-25T15:26:13.981Z,8.60
2022-12-25T15:29:01.052Z,8.50
2022-12-25T15:31:48.021Z,8.50
2022-12-25T15:34:35.407Z,8.50
2022-12-25T15:37:22.669Z,8.50
2022-12-25T15:40:13.780Z,9.00
2022-12-25T15:43:00.700Z,9.40
2022-12-25T15:45:47.848Z,9.50
2022-12-25T15:48:34.926Z,9.70
2022-12-25T15:51:22.890Z,9.90
2022-12-25T15:54:10.599Z,9.70
2022-12-25T15:57:01.998Z,9.60
2022-12-25T15:59:49.304Z,9.40
2022-12-25T16:02:36.773Z,9.30
2022-12-25T16:05:24.624Z,9.30
2022-12-25T16:08:11.660Z,9.40
2022-12-25T16:11:01.259Z,9.80
2022-12-25T16:13:49.792Z,9.80
2022-12-25T16:16:37.817Z,9.70
2022-12-25T16:19:25.212Z,9.70
2022-12-25T16:22:14.163Z,9.50
2022-12-25T16:25:01.448Z,9.50
2022-12-25T16:27:48.718Z,9.40
2022-12-25T16:30:37.708Z,9.20
2022-12-25T16:33:24.903Z,9.30
2022-12-25T16:36:11.807Z,9.60
2022-12-25T16:38:58.903Z,9.50
2022-12-25T16:41:46.144Z,9.50
2022-12-25T16:44:36.928Z,9.40
2022-12-25T16:47:25.984Z,9.50
2022-12-25T16:50:13.439Z,9.40
2022-12-25T16:53:00.726Z,9.50
2022-12-25T16:55:47.983Z,9.30
2022-12-25T16:58:34.828Z,9.40
2022-12-25T17:01:24.003Z,9.60
2022-12-25T17:04:12.629Z,9.60
2022-12-25T17:07:00.092Z,9.50
2022-12-25T17:09:49.334Z,9.70
2022-12-25T17:12:36.581Z,9.70
2022-12-25T17:15:23.627Z,9.90
2022-12-25T17:18:10.669Z,9.80
2022-12-25T17:20:59.708Z,9.90
2022-12-25T17:23:47.020Z,9.80
2022-12-25T17:26:34.873Z,9.70
2022-12-25T17:29:22.892Z,9.90
2022-12-25T17:32:10.591Z,9.90
2022-12-25T17:35:00.640Z,9.90
2022-12-25T17:37:49.625Z,9.90
2022-12-25T17:40:36.869Z,9.80
2022-12-25T17:43:23.853Z,9.80
2022-12-25T17:46:14.381Z,9.70
2022-12-25T17:49:02.958Z,9.80
2022-12-25T17:51:50.313Z,9.70
2022-12-25T17:54:40.917Z,9.60
2022-12-25T17:57:28.038Z,9.60
2022-12-25T18:00:15.751Z,9.70
2022-12-25T18:03:09.054Z,9.70
2022-12-25T18:06:01.183Z,9.90
2022-12-25T18:08:49.509Z,9.90
2022-12-25T18:11:40.634Z,10.00
2022-12-25T18:14:27.817Z,9.90
2022-12-25T18:17:15.118Z,9.80
2022-12-25T18:20:02.685Z,9.90
2022-12-25T18:22:49.555Z,9.90
2022-12-25T18:25:40.465Z,9.90
2022-12-25T18:28:28.744Z,9.90
2022-12-25T18:31:19.225Z,9.70
2022-12-25T18:34:06.247Z,9.60
2022-12-25T18:36:53.027Z,9.60
2022-12-25T18:39:40.424Z,9.50
2022-12-25T18:42:43.446Z,9.40
2022-12-25T18:45:31.871Z,9.40
2022-12-25T18:48:18.804Z,9.20
2022-12-25T18:51:08.074Z,9.20
2022-12-25T18:53:56.617Z,9.30
2022-12-25T18:56:43.886Z,9.30
2022-12-25T18:59:31.284Z,9.30
2022-12-25T19:02:20.834Z,9.00
2022-12-25T19:05:08.642Z,8.80
2022-12-25T19:07:56.410Z,8.80
2022-12-25T19:10:43.718Z,8.60
2022-12-25T19:13:30.599Z,8.50
2022-12-25T19:16:18.188Z,8.50
2022-12-25T19:19:34.205Z,8.50
2022-12-25T19:22:26.728Z,8.70
2022-12-25T19:25:14.336Z,8.60
2022-12-25T19:28:01.997Z,8.50
2022-12-25T19:30:52.904Z,8.50
2022-12-25T19:33:41.361Z,8.50
2022-12-25T19:36:30.059Z,8.30
2022-12-25T19:39:17.297Z,8.20
2022-12-25T19:42:04.142Z,8.20
2022-12-25T19:44:53.577Z,8.00
2022-12-25T19:47:51.900Z,7.90
2022-12-25T19:50:38.953Z,7.90
2022-12-25T19:53:30.082Z,7.70
2022-12-25T19:56:17.363Z,7.90
2022-12-25T19:59:04.633Z,7.90
2022-12-25T20:01:52.131Z,8.00
2022-12-25T20:04:39.765Z,7.80
2022-12-25T20:07:26.662Z,7.70
2022-12-25T20:10:15.552Z,7.70
2022-12-25T20:13:02.620Z,7.50
2022-12-25T20:15:50.237Z,7.30
2022-12-25T20:18:37.867Z,7.20
2022-12-25T20:21:27.549Z,7.20
2022-12-25T20:24:15.254Z,7.00
2022-12-25T20:27:04.207Z,6.80
2022-12-25T20:29:51.327Z,6.70
2022-12-25T20:32:38.785Z,6.70
2022-12-25T20:35:26.001Z,6.60
2022-12-25T20:38:13.466Z,6.50
2022-12-25T20:41:26.244Z,6.50
2022-12-25T20:44:10.958Z,6.50
2022-12-25T20:47:01.285Z,6.30
2022-12-25T20:49:48.903Z,6.20
2022-12-25T20:52:35.807Z,6.10
2022-12-25T20:55:23.369Z,6.00
2022-12-25T20:58:10.349Z,6.00
2022-12-25T21:00:59.258Z,6.00
2022-12-25T21:03:47.627Z,5.90
2022-12-25T21:06:35.199Z,5.90
2022-12-25T21:09:22.275Z,5.80
2022-12-25T21:12:09.598Z,5.70
2022-12-25T21:14:56.595Z,5.70
2022-12-25T21:17:45.107Z,5.50
2022-12-25T21:20:32.575Z,5.40
2022-12-25T21:23:20.277Z,5.40
2022-12-25T21:26:12.349Z,5.30
2022-12-25T21:29:02.296Z,5.30
2022-12-25T21:32:06.760Z,5.20
2022-12-25T21:34:55.440Z,5.20
2022-12-25T21:37:43.003Z,5.10
2022-12-25T21:40:30.490Z,5.10
2022-12-25T21:43:17.384Z,5.00
2022-12-25T21:46:05.526Z,5.10
2022-12-25T21:48:53.082Z,5.00
2022-12-25T21:51:59.639Z,5.00
2022-12-25T21:54:46.452Z,5.00
2022-12-25T21:57:33.683Z,5.10
2022-12-25T22:00:21.009Z,5.00
2022-12-25T22:03:08.435Z,5.00
2022-12-25T22:06:21.119Z,5.00
2022-12-25T22:09:10.591Z,4.90
2022-12-25T22:12:15.170Z,4.90
2022-12-25T22:15:06.761Z,4.90
2022-12-25T22:18:11.398Z,4.80
2022-12-25T22:20:58.731Z,4.80
2022-12-25T22:23:45.569Z,4.90
2022-12-25T22:26:34.088Z,4.80
2022-12-25T22:29:21.199Z,4.90
2022-12-25T22:32:09.047Z,5.00
2022-12-25T22:34:56.542Z,4.90
2022-12-25T22:37:44.467Z,4.90
2022-12-25T22:40:32.328Z,4.90
2022-12-25T22:43:20.828Z,4.90
2022-12-25T22:46:08.162Z,4.80
2022-12-25T22:48:55.372Z,4.90
2022-12-25T22:51:42.801Z,4.90
2022-12-25T22:54:32.324Z,4.90
2022-12-25T22:57:19.579Z,5.00
2022-12-25T23:00:09.941Z,5.00
2022-12-25T23:02:58.260Z,4.90
2022-12-25T23:05:45.524Z,5.00
2022-12-25T23:08:32.451Z,4.90
2022-12-25T23:11:19.764Z,4.90
2022-12-25T23:14:25.088Z,4.90
2022-12-25T23:17:28.621Z,4.90
2022-12-25T23:20:48.370Z,4.80
2022-12-25T23:23:58.548Z,4.80
2022-12-25T23:26:45.977Z,4.80
2022-12-25T23:29:40.062Z,5.00
2022-12-25T23:32:29.145Z,5.00
2022-12-25T23:35:16.098Z,5.00
2022-12-25T23:38:03.416Z,5.00
2022-12-25T23:40:50.388Z,5.00
2022-12-25T23:43:37.290Z,5.00
2022-12-25T23:46:24.870Z,4.90
2022-12-25T23:49:13.558Z,5.00
2022-12-25T23:52:00.817Z,5.20
2022-12-25T23:54:48.052Z,5.30
2022-12-25T23:57:35.466Z,5.50
